Time;durP1;ratioP1;P1;durP2;ratioP2;P2;SDS_P1;SDS_P2;PMS_P1;PMS_P2;Temp;Humidity;BMP_temperature;BMP_pressure;BME280_temperature;BME280_humidity;BME280_pressure;Samples;Min_cycle;Max_cycle;Signal;HPM_P1;HPM_P2
2022/07/17 00:00:05;;;;;;;2.13;0.60;;;14.50;87.90;;;;;;4247837;27;20227;-81
2022/07/17 00:02:08;;;;;;;2.97;1.10;;;14.50;87.40;;;;;;4228692;28;20209;-81
2022/07/17 00:04:10;;;;;;;3.33;0.87;;;14.50;88.40;;;;;;4252576;27;20196;-79
2022/07/17 00:06:12;;;;;;;1.47;0.70;;;14.50;88.00;;;;;;4227769;28;20215;-80
2022/07/17 00:08:15;;;;;;;2.17;0.60;;;14.70;89.40;;;;;;4247147;27;20230;-81
2022/07/17 00:10:17;;;;;;;2.63;0.90;;;14.40;89.60;;;;;;4246585;27;20239;-79
2022/07/17 00:12:19;;;;;;;2.70;0.70;;;14.40;90.10;;;;;;4229552;28;20291;-80
2022/07/17 00:14:21;;;;;;;3.37;0.80;;;14.50;90.90;;;;;;4243558;27;20677;-79
2022/07/17 00:16:23;;;;;;;2.20;0.70;;;14.40;91.00;;;;;;4227924;28;20205;-81
2022/07/17 00:18:25;;;;;;;3.03;0.80;;;14.40;91.00;;;;;;4222959;28;20606;-80
2022/07/17 00:20:29;;;;;;;3.77;1.10;;;14.30;91.30;;;;;;4224547;28;20243;-79
2022/07/17 00:22:31;;;;;;;1.53;0.63;;;14.30;91.20;;;;;;4239093;27;20665;-79
2022/07/17 00:24:34;;;;;;;0.80;0.60;;;14.30;91.30;;;;;;4244578;27;20256;-80
2022/07/17 00:26:36;;;;;;;2.20;0.90;;;14.30;91.70;;;;;;4226732;28;20255;-80
2022/07/17 00:28:38;;;;;;;3.47;0.73;;;14.20;92.00;;;;;;4252296;27;20266;-81
2022/07/17 00:30:40;;;;;;;4.53;1.10;;;14.50;91.90;;;;;;4240115;28;20588;-81
2022/07/17 00:32:42;;;;;;;1.93;0.70;;;14.20;91.70;;;;;;4252351;27;20208;-81
2022/07/17 00:34:44;;;;;;;2.33;0.83;;;14.20;92.20;;;;;;4247607;27;20276;-82
2022/07/17 00:36:46;;;;;;;2.03;0.70;;;14.40;92.60;;;;;;4251210;27;20308;-81
2022/07/17 00:38:48;;;;;;;3.27;0.80;;;14.10;92.60;;;;;;4250362;27;20589;-81
2022/07/17 00:40:54;;;;;;;3.07;1.20;;;14.10;93.00;;;;;;4243130;27;20220;-81
2022/07/17 00:42:56;;;;;;;3.03;1.00;;;14.10;92.80;;;;;;4250630;27;20271;-81
2022/07/17 00:44:58;;;;;;;2.27;1.00;;;14.10;93.60;;;;;;4245099;27;20232;-81
2022/07/17 00:47:00;;;;;;;5.93;0.90;;;14.00;93.40;;;;;;4248002;27;20310;-81
2022/07/17 00:49:02;;;;;;;1.50;0.90;;;14.00;93.60;;;;;;4252156;27;20291;-81
2022/07/17 00:51:04;;;;;;;3.73;0.80;;;14.00;93.10;;;;;;4246493;27;20283;-81
2022/07/17 00:53:08;;;;;;;1.87;0.87;;;14.00;93.60;;;;;;4248303;27;20288;-81
2022/07/17 00:55:12;;;;;;;2.83;0.80;;;14.00;93.50;;;;;;4248310;27;20209;-81
2022/07/17 00:57:16;;;;;;;1.53;0.80;;;13.90;93.90;;;;;;4248887;27;20278;-81
2022/07/17 00:59:20;;;;;;;3.23;0.90;;;13.90;93.90;;;;;;4250572;27;20294;-81
2022/07/17 01:01:22;;;;;;;1.67;0.63;;;13.90;93.60;;;;;;4251157;27;20200;-81
2022/07/17 01:03:25;;;;;;;1.57;0.60;;;13.80;93.50;;;;;;4251990;27;20211;-81
2022/07/17 01:05:28;;;;;;;2.13;0.90;;;13.80;93.60;;;;;;4249808;27;20204;-81
2022/07/17 01:07:30;;;;;;;2.03;0.80;;;13.80;94.90;;;;;;4250728;27;20301;-81
2022/07/17 01:09:32;;;;;;;0.97;0.70;;;13.80;94.70;;;;;;4248867;27;20204;-81
2022/07/17 01:11:34;;;;;;;1.47;0.80;;;13.80;94.50;;;;;;4249566;27;20299;-81
2022/07/17 01:13:37;;;;;;;3.50;0.87;;;13.70;95.60;;;;;;4256716;27;20235;-81
2022/07/17 01:15:40;;;;;;;4.27;0.90;;;13.70;95.90;;;;;;4256010;27;20218;-81
2022/07/17 01:17:43;;;;;;;1.67;0.70;;;13.70;96.40;;;;;;4253792;27;20230;-81
2022/07/17 01:19:45;;;;;;;2.60;0.60;;;13.60;95.80;;;;;;4249422;27;20695;-81
2022/07/17 01:21:50;;;;;;;1.70;0.70;;;13.60;96.00;;;;;;4247941;27;20275;-80
2022/07/17 01:23:52;;;;;;;1.80;0.80;;;13.60;95.90;;;;;;4246477;27;20653;-80
2022/07/17 01:25:54;;;;;;;0.90;0.67;;;13.60;95.90;;;;;;4242835;27;20259;-80
2022/07/17 04:48:59;;;;;;;3.33;1.10;;;11.00;99.90;;;;;;4225737;28;20205;-80
2022/07/17 04:51:01;;;;;;;3.20;0.97;;;11.00;99.90;;;;;;4238701;27;20217;-80
2022/07/17 04:53:03;;;;;;;5.63;1.10;;;11.00;99.90;;;;;;4254559;27;20208;-80
2022/07/17 04:55:05;;;;;;;3.87;1.20;;;11.00;99.90;;;;;;4253618;27;20208;-80
2022/07/17 04:57:07;;;;;;;2.33;1.10;;;11.00;99.90;;;;;;4237985;28;20255;-80
2022/07/17 04:59:09;;;;;;;2.43;1.30;;;11.10;99.90;;;;;;4260360;27;20224;-80
2022/07/17 05:01:11;;;;;;;2.17;1.27;;;11.30;99.90;;;;;;4259461;27;20200;-80
2022/07/17 05:03:14;;;;;;;2.60;1.50;;;11.10;99.90;;;;;;4252258;27;20292;-80
2022/07/17 05:05:17;;;;;;;2.97;1.40;;;11.10;99.90;;;;;;4247860;27;20204;-80
2022/07/17 05:07:19;;;;;;;3.57;1.40;;;11.10;99.90;;;;;;4245595;27;20203;-80
2022/07/17 05:09:21;;;;;;;4.77;1.50;;;11.20;99.90;;;;;;4247015;27;20245;-80
2022/07/17 05:11:22;;;;;;;3.83;1.80;;;11.20;99.90;;;;;;4232467;28;20301;-80
2022/07/17 05:13:25;;;;;;;2.00;1.60;;;11.20;99.90;;;;;;4245782;27;20247;-80
2022/07/17 05:15:27;;;;;;;3.27;1.50;;;11.30;99.90;;;;;;4226867;28;20552;-80
2022/07/17 05:17:29;;;;;;;3.93;1.70;;;11.30;99.90;;;;;;4248824;27;20203;-80
2022/07/17 05:19:31;;;;;;;2.20;1.20;;;11.30;99.90;;;;;;4246977;27;20201;-80
2022/07/17 05:21:34;;;;;;;4.13;1.93;;;11.30;99.90;;;;;;4247949;27;20254;-80
2022/07/17 05:23:36;;;;;;;3.77;1.60;;;11.40;99.90;;;;;;4230026;28;20193;-80
2022/07/17 05:25:38;;;;;;;4.03;1.57;;;11.40;99.90;;;;;;4247726;27;20212;-80
2022/07/17 05:27:40;;;;;;;7.47;1.73;;;11.50;99.90;;;;;;4247435;27;20235;-80
2022/07/17 05:29:42;;;;;;;3.57;1.40;;;11.50;99.90;;;;;;4247442;27;20228;-80
2022/07/17 05:31:44;;;;;;;2.33;1.23;;;11.60;99.90;;;;;;4248997;27;20223;-80
2022/07/17 05:33:46;;;;;;;3.70;1.60;;;11.60;99.90;;;;;;4252152;27;20205;-80
2022/07/17 05:35:48;;;;;;;3.07;1.10;;;11.70;99.90;;;;;;4249912;27;20223;-80
2022/07/17 05:37:51;;;;;;;4.73;1.67;;;11.70;99.90;;;;;;4245194;27;20229;-80
2022/07/17 05:39:53;;;;;;;2.70;1.20;;;12.00;99.90;;;;;;4243055;27;20214;-80
2022/07/17 05:41:55;;;;;;;2.83;1.20;;;11.80;99.90;;;;;;4225023;28;20297;-80
2022/07/17 05:43:56;;;;;;;2.23;1.23;;;11.90;99.90;;;;;;4227514;28;20655;-80
2022/07/17 05:45:59;;;;;;;5.77;1.27;;;11.90;99.90;;;;;;4243555;27;20206;-80
2022/07/17 05:48:01;;;;;;;2.70;1.33;;;12.00;99.90;;;;;;4227391;27;20244;-80
2022/07/17 05:50:03;;;;;;;3.00;1.37;;;12.10;99.90;;;;;;4250322;27;20287;-80
2022/07/17 05:52:05;;;;;;;3.13;1.60;;;12.10;99.90;;;;;;4251181;27;20220;-80
2022/07/17 05:54:09;;;;;;;3.97;1.40;;;12.10;99.90;;;;;;4231354;28;20207;-80
2022/07/17 05:56:11;;;;;;;3.53;1.20;;;12.20;99.90;;;;;;4250657;27;20495;-80
2022/07/17 05:58:13;;;;;;;4.33;1.17;;;12.20;99.90;;;;;;4245964;27;20613;-80
2022/07/17 06:00:15;;;;;;;1.93;1.00;;;12.30;99.90;;;;;;4229579;28;20199;-80
2022/07/17 06:02:17;;;;;;;3.87;1.63;;;12.30;99.90;;;;;;4235363;28;20208;-80
2022/07/17 06:04:19;;;;;;;2.43;1.37;;;12.40;99.90;;;;;;4253022;27;20269;-80
2022/07/17 06:06:21;;;;;;;3.60;1.23;;;12.40;99.90;;;;;;4253324;27;20680;-80
2022/07/17 06:08:23;;;;;;;2.90;1.43;;;12.50;99.90;;;;;;4234153;28;20227;-80
2022/07/17 06:10:27;;;;;;;3.37;1.47;;;12.50;99.90;;;;;;4254329;27;20671;-80
2022/07/17 06:12:29;;;;;;;2.40;1.00;;;12.60;99.90;;;;;;4253519;27;20335;-80
2022/07/17 06:14:31;;;;;;;5.60;1.50;;;12.60;99.90;;;;;;4227644;28;20264;-80
2022/07/17 06:16:33;;;;;;;0.80;0.60;;;12.70;99.90;;;;;;4254072;27;20226;-80
2022/07/17 06:18:35;;;;;;;4.77;1.10;;;12.80;99.90;;;;;;4248134;27;20229;-80
2022/07/17 06:20:37;;;;;;;3.30;1.10;;;12.80;99.90;;;;;;4251287;27;20236;-80
2022/07/17 06:22:39;;;;;;;3.10;0.97;;;12.90;99.90;;;;;;4253958;27;20565;-80
2022/07/17 06:24:41;;;;;;;4.33;1.00;;;13.00;99.90;;;;;;4252603;27;20210;-80
2022/07/17 06:26:44;;;;;;;2.33;0.90;;;13.00;99.90;;;;;;4254933;27;20633;-80
2022/07/17 06:28:46;;;;;;;5.47;1.30;;;13.10;99.90;;;;;;4250782;27;20261;-80
2022/07/17 06:30:49;;;;;;;4.00;1.37;;;13.10;99.90;;;;;;4251239;27;20263;-80
2022/07/17 06:32:51;;;;;;;3.00;0.93;;;13.20;99.90;;;;;;4254687;27;20210;-79
2022/07/17 06:34:53;;;;;;;4.60;1.07;;;13.20;99.90;;;;;;4233736;28;20204;-80
2022/07/17 06:36:55;;;;;;;2.03;1.00;;;13.30;99.90;;;;;;4257679;27;20213;-80
2022/07/17 06:38:57;;;;;;;2.50;1.00;;;13.30;99.90;;;;;;4252204;27;20954;-80
2022/07/17 06:40:58;;;;;;;4.77;2.20;;;13.40;99.90;;;;;;4249704;27;20234;-80
2022/07/17 06:43:02;;;;;;;5.53;2.40;;;13.40;99.90;;;;;;4250052;27;20208;-80
2022/07/17 06:45:04;;;;;;;5.83;1.70;;;13.60;99.90;;;;;;4254425;27;20655;-80
2022/07/17 06:47:06;;;;;;;4.97;1.37;;;13.60;99.90;;;;;;4254656;27;20272;-80
2022/07/17 06:49:08;;;;;;;6.00;1.50;;;13.60;99.90;;;;;;4237639;28;20275;-80
2022/07/17 06:51:10;;;;;;;3.33;1.00;;;13.80;99.90;;;;;;4246585;28;20196;-80
2022/07/17 06:53:12;;;;;;;4.87;1.10;;;13.80;99.90;;;;;;4259204;27;20225;-80
2022/07/17 06:55:14;;;;;;;4.40;1.50;;;13.90;99.90;;;;;;4264485;28;20757;-81
2022/07/17 06:57:16;;;;;;;4.23;1.30;;;14.00;99.90;;;;;;4260945;28;20200;-80
2022/07/17 06:59:19;;;;;;;2.53;1.00;;;14.00;99.90;;;;;;4234195;28;20249;-80
2022/07/17 07:01:21;;;;;;;4.10;1.20;;;14.10;99.90;;;;;;4257491;28;20207;-80
2022/07/17 07:03:23;;;;;;;3.20;0.93;;;14.10;99.90;;;;;;4257123;28;20203;-80
2022/07/17 07:05:25;;;;;;;5.37;1.03;;;14.20;99.90;;;;;;4237694;28;20254;-80
2022/07/17 07:07:27;;;;;;;5.90;0.90;;;14.30;99.90;;;;;;4257304;28;20194;-80
2022/07/17 07:09:29;;;;;;;1.63;0.93;;;14.30;99.90;;;;;;4260562;28;20215;-80
2022/07/17 07:11:31;;;;;;;2.70;1.00;;;14.40;99.90;;;;;;4256642;28;20211;-80
2022/07/17 07:13:33;;;;;;;1.87;0.70;;;14.50;99.90;;;;;;4257222;28;20271;-80
2022/07/17 07:15:36;;;;;;;2.73;0.80;;;14.60;99.90;;;;;;4239632;28;20685;-79
2022/07/17 07:17:38;;;;;;;3.83;0.90;;;14.60;99.90;;;;;;4239235;28;20211;-80
2022/07/17 07:19:40;;;;;;;2.57;1.07;;;14.70;99.90;;;;;;4260300;28;20209;-79
2022/07/17 07:21:42;;;;;;;1.60;0.90;;;14.70;99.90;;;;;;4256213;28;20201;-79
2022/07/17 07:23:44;;;;;;;3.33;1.20;;;14.80;99.90;;;;;;4252371;28;20281;-80
2022/07/17 07:25:46;;;;;;;2.97;1.10;;;14.90;99.90;;;;;;4228617;28;20254;-77
2022/07/17 07:27:48;;;;;;;5.23;1.80;;;14.90;99.90;;;;;;4250803;28;20643;-79
2022/07/17 07:29:50;;;;;;;4.93;1.33;;;15.00;99.90;;;;;;4257903;28;20194;-80
2022/07/17 07:31:54;;;;;;;6.83;1.40;;;15.00;99.90;;;;;;4251806;28;20239;-80
2022/07/17 07:33:56;;;;;;;5.73;1.57;;;15.10;99.90;;;;;;4245962;28;20210;-80
2022/07/17 07:35:58;;;;;;;3.77;1.37;;;15.20;99.90;;;;;;4250485;28;20264;-80
2022/07/17 07:38:00;;;;;;;3.63;1.03;;;15.20;99.90;;;;;;4233364;28;20272;-79
2022/07/17 07:40:02;;;;;;;2.20;0.90;;;15.30;99.90;;;;;;4232125;28;20631;-79
2022/07/17 07:42:05;;;;;;;2.03;1.07;;;15.30;99.90;;;;;;4242382;28;20632;-79
2022/07/17 07:44:07;;;;;;;4.00;1.17;;;15.30;99.90;;;;;;4231890;28;20201;-80
2022/07/17 07:46:09;;;;;;;3.23;1.00;;;15.40;99.90;;;;;;4229532;28;20217;-80
2022/07/17 07:48:12;;;;;;;7.40;1.17;;;15.50;99.90;;;;;;4250688;28;20727;-79
2022/07/17 07:50:15;;;;;;;4.27;0.90;;;15.60;99.90;;;;;;4248564;28;20201;-79
2022/07/17 07:52:17;;;;;;;6.17;1.20;;;15.60;99.50;;;;;;4244073;28;20201;-79
2022/07/17 07:54:19;;;;;;;3.57;1.00;;;15.60;99.30;;;;;;4246552;28;20200;-79
2022/07/17 07:56:21;;;;;;;2.23;0.83;;;15.70;99.20;;;;;;4229615;28;20232;-80
2022/07/17 07:58:23;;;;;;;3.87;1.10;;;15.70;99.00;;;;;;4248628;27;20304;-79
2022/07/17 08:00:25;;;;;;;2.93;1.07;;;15.80;99.20;;;;;;4247565;27;20200;-79
2022/07/17 08:02:27;;;;;;;4.37;1.50;;;15.80;98.20;;;;;;4249295;27;20201;-80
2022/07/17 08:04:31;;;;;;;3.00;0.90;;;15.90;98.20;;;;;;4230289;28;20296;-80
2022/07/17 08:06:33;;;;;;;2.87;1.00;;;15.90;98.60;;;;;;4249500;27;20222;-79
2022/07/17 08:08:35;;;;;;;3.07;0.90;;;16.00;98.30;;;;;;4250354;27;20281;-79
2022/07/17 08:10:37;;;;;;;3.13;0.83;;;16.00;96.10;;;;;;4234051;28;20297;-81
2022/07/17 08:12:38;;;;;;;4.90;0.90;;;16.10;96.50;;;;;;4250016;27;20271;-79
2022/07/17 08:14:40;;;;;;;5.10;1.07;;;16.20;96.50;;;;;;4250846;27;20206;-79
2022/07/17 08:16:42;;;;;;;3.80;0.93;;;16.20;96.60;;;;;;4248649;27;20217;-79
2022/07/17 08:18:44;;;;;;;5.40;1.10;;;16.30;95.20;;;;;;4250278;27;20273;-80
2022/07/17 08:20:48;;;;;;;3.03;1.20;;;16.30;95.30;;;;;;4247556;27;20716;-80
2022/07/17 08:22:50;;;;;;;3.50;1.00;;;16.30;93.60;;;;;;4251097;27;20200;-80
2022/07/17 08:24:52;;;;;;;2.87;1.27;;;16.40;93.50;;;;;;4251783;27;20672;-79
2022/07/17 08:26:54;;;;;;;8.07;1.40;;;16.50;93.40;;;;;;4251971;27;20194;-80
2022/07/17 08:28:56;;;;;;;8.17;1.27;;;16.50;92.70;;;;;;4247995;27;20223;-80
2022/07/17 08:30:58;;;;;;;5.03;1.27;;;16.60;91.80;;;;;;4237795;28;20211;-79
2022/07/17 08:33:00;;;;;;;8.80;1.50;;;16.60;91.60;;;;;;4250494;27;20219;-80
2022/07/17 08:35:02;;;;;;;4.90;1.20;;;16.60;91.50;;;;;;4256336;27;20560;-80
2022/07/17 08:37:05;;;;;;;4.00;1.33;;;16.70;91.20;;;;;;4238582;28;20793;-81
2022/07/17 08:39:07;;;;;;;5.17;1.30;;;16.80;90.80;;;;;;4252460;27;20625;-80
2022/07/17 08:41:10;;;;;;;3.37;1.20;;;16.80;88.60;;;;;;4234908;28;20246;-80
2022/07/17 08:43:12;;;;;;;1.70;0.83;;;16.90;86.40;;;;;;4255727;27;20214;-81
2022/07/17 08:45:14;;;;;;;3.53;1.00;;;16.90;85.00;;;;;;4255141;27;20211;-79
2022/07/17 08:47:16;;;;;;;3.60;1.13;;;17.00;80.50;;;;;;4228231;28;20211;-78
2022/07/17 08:49:22;;;;;;;4.23;1.07;;;17.10;77.60;;;;;;4233469;28;20217;-80
2022/07/17 08:51:26;;;;;;;5.03;1.00;;;17.10;77.20;;;;;;4239947;28;20207;-80
2022/07/17 08:53:29;;;;;;;2.10;0.70;;;17.20;77.90;;;;;;4237046;28;20240;-80
2022/07/17 08:55:31;;;;;;;3.43;1.07;;;17.30;77.70;;;;;;4255966;27;20207;-80
2022/07/17 08:57:33;;;;;;;2.30;1.10;;;17.30;78.50;;;;;;4252617;27;20195;-80
2022/07/17 08:59:36;;;;;;;3.27;1.10;;;17.40;77.50;;;;;;4254181;27;20570;-80
2022/07/17 09:01:38;;;;;;;3.97;1.00;;;17.40;73.90;;;;;;4235503;28;20601;-80
2022/07/17 09:03:41;;;;;;;2.90;0.90;;;17.50;74.00;;;;;;4244636;27;20555;-79
2022/07/17 09:05:43;;;;;;;3.40;1.30;;;17.50;73.00;;;;;;4228227;28;20623;-80
2022/07/17 09:07:49;;;;;;;2.67;1.20;;;17.60;72.90;;;;;;4244279;27;20255;-80
2022/07/17 09:09:52;;;;;;;3.23;0.83;;;17.60;72.50;;;;;;4248720;27;20205;-80
2022/07/17 09:11:55;;;;;;;3.87;1.23;;;17.70;70.80;;;;;;4228929;28;20197;-79
2022/07/17 09:13:57;;;;;;;3.90;1.00;;;17.70;71.40;;;;;;4244209;27;20206;-79
2022/07/17 09:16:06;;;;;;;1.67;0.90;;;17.70;71.40;;;;;;4229339;28;20212;-80
2022/07/17 09:18:08;;;;;;;2.83;0.90;;;17.70;71.80;;;;;;4241617;27;20250;-79
2022/07/17 09:20:14;;;;;;;4.03;1.00;;;17.80;71.40;;;;;;4248767;27;20235;-80
2022/07/17 09:22:17;;;;;;;4.80;1.33;;;17.90;62.90;;;;;;4244405;27;20202;-80
2022/07/17 09:24:19;;;;;;;3.93;1.33;;;17.90;62.70;;;;;;4246163;27;20797;-80
2022/07/17 09:26:22;;;;;;;4.00;1.10;;;18.00;60.40;;;;;;4231100;28;20287;-80
2022/07/17 09:28:25;;;;;;;4.80;1.10;;;18.00;60.80;;;;;;4229197;28;20244;-80
2022/07/17 09:30:27;;;;;;;3.00;1.10;;;18.10;63.20;;;;;;4248212;27;20235;-81
2022/07/17 09:32:31;;;;;;;4.53;1.20;;;18.20;63.80;;;;;;4242928;27;20220;-79
2022/07/17 09:34:33;;;;;;;3.53;1.33;;;18.20;63.40;;;;;;4248590;27;20246;-79
2022/07/17 09:36:35;;;;;;;2.93;0.97;;;18.30;63.80;;;;;;4223376;28;20208;-79
2022/07/17 09:38:38;;;;;;;3.07;0.83;;;18.30;62.60;;;;;;4232537;28;20354;-80
2022/07/17 09:43:01;;;;;;;3.13;1.17;;;18.40;60.90;;;;;;4248324;27;20258;-80
2022/07/17 09:45:05;;;;;;;4.27;1.30;;;18.50;60.50;;;;;;4229474;28;20202;-80
2022/07/17 09:47:07;;;;;;;2.03;0.90;;;18.60;60.20;;;;;;4225677;28;20685;-80
2022/07/17 09:49:09;;;;;;;2.83;0.90;;;18.70;58.60;;;;;;4243834;27;20212;-80
2022/07/17 09:51:12;;;;;;;4.60;1.13;;;18.70;54.80;;;;;;4244110;27;20233;-80
2022/07/17 09:53:15;;;;;;;3.87;1.00;;;18.80;54.60;;;;;;4253480;27;20252;-80
2022/07/17 09:55:18;;;;;;;2.67;1.10;;;18.90;53.70;;;;;;4254838;27;20290;-80
2022/07/17 09:57:21;;;;;;;1.67;0.80;;;19.00;54.10;;;;;;4252225;27;20214;-80
2022/07/17 09:59:26;;;;;;;4.10;0.80;;;19.10;54.10;;;;;;4232329;28;20202;-78
2022/07/17 10:01:28;;;;;;;3.87;0.80;;;19.10;53.70;;;;;;4224993;28;20207;-78
2022/07/17 10:03:30;;;;;;;3.13;0.80;;;19.30;53.30;;;;;;4241335;27;20698;-78
2022/07/17 10:05:32;;;;;;;3.00;1.13;;;19.50;52.40;;;;;;4242906;27;20589;-78
2022/07/17 10:07:35;;;;;;;6.97;1.17;;;19.50;51.90;;;;;;4245474;27;20228;-79
2022/07/17 10:09:38;;;;;;;1.83;0.80;;;19.70;51.00;;;;;;4248298;27;20210;-79
2022/07/17 10:11:42;;;;;;;1.87;0.90;;;19.70;50.20;;;;;;4244307;27;20233;-79
2022/07/17 10:13:45;;;;;;;2.30;0.70;;;19.70;49.60;;;;;;4241891;27;20257;-80
2022/07/17 10:15:49;;;;;;;4.40;1.23;;;19.90;50.20;;;;;;4250280;27;20209;-80
2022/07/17 10:17:51;;;;;;;2.50;1.00;;;20.00;48.90;;;;;;4248943;27;20321;-81
2022/07/17 10:19:55;;;;;;;2.77;0.90;;;20.10;48.90;;;;;;4249523;27;20206;-80
2022/07/17 10:21:59;;;;;;;1.90;0.90;;;20.20;47.10;;;;;;4253111;27;20663;-81
2022/07/17 10:24:10;;;;;;;1.43;0.80;;;20.30;45.50;;;;;;4232503;28;20214;-80
2022/07/17 10:26:12;;;;;;;1.50;0.70;;;20.50;45.70;;;;;;4236595;28;20212;-79
2022/07/17 10:28:16;;;;;;;1.80;0.80;;;20.60;44.80;;;;;;4250181;27;20223;-80
2022/07/17 10:30:26;;;;;;;2.13;0.90;;;20.70;44.10;;;;;;4251960;27;20227;-79
2022/07/17 10:32:29;;;;;;;2.17;0.90;;;20.80;44.20;;;;;;4239838;27;20212;-79
2022/07/17 10:34:39;;;;;;;1.93;0.80;;;20.90;43.70;;;;;;4252059;27;20215;-79
2022/07/17 10:36:42;;;;;;;2.83;0.90;;;21.00;43.50;;;;;;4230480;28;20211;-79
2022/07/17 10:38:44;;;;;;;2.10;1.00;;;21.20;43.10;;;;;;4243020;27;20318;-80
2022/07/17 10:40:47;;;;;;;2.57;0.73;;;21.30;42.60;;;;;;4249038;27;20199;-81
2022/07/17 10:42:56;;;;;;;2.10;0.77;;;21.40;41.80;;;;;;4248674;27;20256;-81
2022/07/17 10:45:07;;;;;;;3.73;1.30;;;21.60;41.20;;;;;;4246781;27;20200;-83
2022/07/17 10:47:09;;;;;;;2.53;0.90;;;21.80;41.60;;;;;;4234585;28;20209;-83
2022/07/17 10:49:12;;;;;;;2.60;0.80;;;22.00;41.60;;;;;;4230675;28;20225;-81
2022/07/17 10:51:14;;;;;;;4.17;1.00;;;22.10;41.10;;;;;;4231692;28;20559;-83
2022/07/17 10:53:21;;;;;;;4.87;1.00;;;22.20;41.00;;;;;;4241381;27;20227;-83
2022/07/17 10:55:22;;;;;;;1.90;0.80;;;22.30;40.60;;;;;;4246191;27;22063;-79
2022/07/17 10:57:26;;;;;;;2.60;0.80;;;22.30;40.40;;;;;;4227421;28;20217;-79
2022/07/17 10:59:28;;;;;;;4.13;1.03;;;22.40;40.10;;;;;;4250498;27;20206;-81
2022/07/17 11:01:30;;;;;;;2.20;0.70;;;22.40;39.20;;;;;;4225921;28;20210;-81
2022/07/17 11:03:36;;;;;;;3.97;1.00;;;22.40;38.70;;;;;;4235187;28;20205;-80
2022/07/17 11:05:40;;;;;;;2.67;0.90;;;22.40;38.40;;;;;;4241340;28;20288;-81
2022/07/17 11:07:58;;;;;;;5.73;1.00;;;22.50;38.70;;;;;;4242892;28;20204;-80
2022/07/17 11:10:00;;;;;;;3.47;1.10;;;22.60;38.30;;;;;;4238636;28;20876;-80
2022/07/17 11:12:02;;;;;;;4.63;0.90;;;22.70;38.20;;;;;;4239697;28;20620;-80
2022/07/17 11:14:11;;;;;;;6.10;1.00;;;22.80;38.20;;;;;;4244915;28;20256;-80
2022/07/17 11:16:23;;;;;;;2.13;1.00;;;22.90;38.20;;;;;;4242415;28;20689;-80
2022/07/17 11:18:25;;;;;;;3.13;1.30;;;23.10;38.30;;;;;;4245145;28;20215;-80
2022/07/17 11:20:27;;;;;;;3.07;1.20;;;23.20;38.00;;;;;;4244412;28;20261;-80
2022/07/17 11:22:31;;;;;;;4.93;1.10;;;23.30;37.50;;;;;;4225889;28;20234;-79
2022/07/17 11:24:39;;;;;;;5.23;1.67;;;23.40;37.30;;;;;;4241362;28;20764;-78
2022/07/17 11:26:41;;;;;;;3.93;1.37;;;23.60;36.90;;;;;;4240626;28;20234;-80
2022/07/17 11:28:45;;;;;;;6.20;1.40;;;23.70;36.80;;;;;;4247990;28;20240;-80
2022/07/17 11:30:47;;;;;;;4.00;1.10;;;23.90;36.20;;;;;;4250486;27;20267;-80
2022/07/17 11:32:49;;;;;;;4.07;1.13;;;24.00;35.90;;;;;;4246027;27;20704;-80
2022/07/17 11:34:51;;;;;;;2.83;0.93;;;24.20;35.10;;;;;;4245809;27;20219;-81
2022/07/17 11:37:00;;;;;;;2.63;1.20;;;24.50;35.00;;;;;;4239913;27;20224;-80
2022/07/17 11:39:10;;;;;;;1.77;0.70;;;24.80;34.30;;;;;;4245615;27;20263;-80
2022/07/17 11:41:12;;;;;;;3.17;1.10;;;24.90;32.10;;;;;;4248145;27;20229;-81
2022/07/17 11:43:14;;;;;;;2.57;0.80;;;25.10;32.10;;;;;;4240981;27;20201;-81
2022/07/17 11:45:16;;;;;;;3.77;0.80;;;25.30;31.80;;;;;;4248413;27;20246;-80
2022/07/17 11:47:22;;;;;;;1.73;0.90;;;25.40;31.30;;;;;;4248816;27;20208;-80
2022/07/17 11:49:25;;;;;;;2.07;0.90;;;25.60;31.20;;;;;;4247790;27;20239;-81
2022/07/17 11:51:38;;;;;;;2.20;0.80;;;25.90;31.30;;;;;;4249143;27;20544;-81
2022/07/17 11:53:41;;;;;;;1.80;0.60;;;26.10;31.00;;;;;;4240971;27;20315;-81
2022/07/17 11:55:44;;;;;;;1.40;0.73;;;26.20;29.50;;;;;;4248384;27;20208;-80
2022/07/17 11:57:48;;;;;;;2.67;0.70;;;26.20;29.30;;;;;;4227760;28;20262;-81
2022/07/17 11:59:51;;;;;;;2.97;0.80;;;26.30;29.30;;;;;;4226347;28;20201;-80
2022/07/17 12:01:53;;;;;;;2.73;0.70;;;26.30;28.40;;;;;;4228620;28;20209;-81
2022/07/17 12:03:58;;;;;;;2.73;0.80;;;26.20;28.40;;;;;;4245151;27;20200;-80
2022/07/17 12:06:00;;;;;;;2.37;1.10;;;26.20;28.80;;;;;;4228666;28;20216;-80
2022/07/17 12:08:02;;;;;;;1.87;1.00;;;26.40;29.00;;;;;;4240797;27;20719;-80
2022/07/17 12:10:15;;;;;;;3.37;0.90;;;26.30;29.00;;;;;;4245077;27;20215;-80
2022/07/17 12:12:23;;;;;;;3.43;0.90;;;26.50;29.20;;;;;;4254980;27;20257;-80
2022/07/17 12:14:25;;;;;;;2.57;1.00;;;26.60;29.30;;;;;;4256527;27;20253;-81
2022/07/17 12:16:29;;;;;;;4.37;0.90;;;26.80;29.30;;;;;;4255782;27;20208;-81
2022/07/17 12:18:31;;;;;;;1.70;1.07;;;26.90;29.50;;;;;;4222616;28;20686;-81
2022/07/17 12:20:44;;;;;;;3.63;0.93;;;26.70;29.40;;;;;;4223837;28;20233;-82
2022/07/17 12:22:47;;;;;;;1.17;0.80;;;26.70;29.70;;;;;;4242434;27;20208;-80
2022/07/17 12:24:49;;;;;;;3.77;0.90;;;27.00;29.80;;;;;;4246104;27;20243;-80
2022/07/17 12:26:51;;;;;;;2.57;1.00;;;27.30;29.50;;;;;;4246138;27;20232;-80
2022/07/17 12:28:55;;;;;;;2.83;1.23;;;27.60;29.50;;;;;;4229680;28;20217;-82
2022/07/17 12:30:56;;;;;;;3.67;1.10;;;27.90;29.10;;;;;;4221867;28;20681;-81
2022/07/17 12:32:59;;;;;;;3.28;1.33;;;28.10;28.20;;;;;;4240886;27;20203;-82
2022/07/17 12:35:01;;;;;;;2.58;1.00;;;28.30;27.80;;;;;;4229097;28;20201;-80
2022/07/17 12:37:03;;;;;;;3.22;1.70;;;28.40;27.40;;;;;;4245156;27;20248;-79
2022/07/17 12:39:05;;;;;;;2.63;1.60;;;28.50;27.30;;;;;;4232274;28;20735;-79
2022/07/17 12:41:07;;;;;;;2.10;1.50;;;28.80;27.10;;;;;;4222527;28;20228;-80
2022/07/17 12:43:09;;;;;;;2.10;1.25;;;29.00;26.80;;;;;;4249508;27;20204;-77
2022/07/17 12:45:12;;;;;;;2.17;1.02;;;29.40;26.90;;;;;;4246961;27;20239;-79
2022/07/17 12:47:14;;;;;;;2.58;1.10;;;29.50;25.70;;;;;;4244998;27;20206;-81
2022/07/17 12:49:16;;;;;;;1.90;0.80;;;29.70;25.50;;;;;;4244445;27;20220;-80
2022/07/17 12:51:18;;;;;;;2.85;1.15;;;29.90;24.90;;;;;;4246667;27;20294;-82
2022/07/17 12:53:20;;;;;;;2.50;0.90;;;30.10;24.80;;;;;;4222478;28;20201;-79
2022/07/17 12:55:22;;;;;;;1.88;0.93;;;30.40;24.90;;;;;;4224762;28;20299;-78
2022/07/17 12:57:24;;;;;;;2.17;0.90;;;30.70;25.00;;;;;;4223992;28;20212;-80
2022/07/17 12:59:26;;;;;;;2.55;0.93;;;31.10;24.90;;;;;;4232734;28;20230;-80
2022/07/17 13:01:29;;;;;;;4.00;1.00;;;31.40;24.10;;;;;;4250653;27;20263;-81
2022/07/17 13:03:32;;;;;;;2.65;1.13;;;31.60;24.10;;;;;;4245182;27;20195;-79
2022/07/17 13:05:34;;;;;;;1.80;1.27;;;31.90;24.00;;;;;;4228767;28;20262;-81
2022/07/17 13:07:36;;;;;;;4.32;1.33;;;32.20;23.90;;;;;;4241181;27;20200;-81
2022/07/17 13:09:38;;;;;;;2.42;1.20;;;32.70;23.80;;;;;;4227155;28;20315;-79
2022/07/17 13:11:42;;;;;;;1.52;0.70;;;32.90;23.20;;;;;;4237057;27;20288;-80
2022/07/17 13:13:46;;;;;;;2.38;1.08;;;33.30;22.90;;;;;;4244183;27;20230;-80
2022/07/17 13:15:48;;;;;;;2.38;0.90;;;33.70;23.20;;;;;;4257822;27;20574;-83
2022/07/17 13:17:52;;;;;;;1.77;0.70;;;33.90;22.10;;;;;;4235498;28;20225;-83
2022/07/17 13:19:53;;;;;;;3.38;0.77;;;34.20;22.20;;;;;;4239704;27;20204;-81
2022/07/17 13:21:55;;;;;;;2.55;1.13;;;34.60;22.50;;;;;;4239751;28;20694;-82
2022/07/17 13:23:57;;;;;;;1.60;1.00;;;35.10;21.90;;;;;;4227779;28;20242;-81
2022/07/17 13:25:59;;;;;;;1.67;0.90;;;35.50;21.30;;;;;;4246912;27;20260;-82
2022/07/17 13:28:02;;;;;;;3.35;0.98;;;35.20;21.50;;;;;;4233215;28;20246;-82
2022/07/17 13:30:04;;;;;;;4.00;0.90;;;35.60;20.80;;;;;;4234974;28;20208;-82
2022/07/17 13:32:07;;;;;;;2.15;0.85;;;36.00;20.60;;;;;;4245032;27;20200;-80
2022/07/17 13:34:13;;;;;;;3.38;0.80;;;36.50;20.50;;;;;;4243374;27;20220;-79
2022/07/17 13:36:15;;;;;;;3.50;1.05;;;36.70;20.10;;;;;;4227814;28;20603;-79
2022/07/17 13:38:17;;;;;;;4.18;1.00;;;37.10;20.30;;;;;;4247634;27;20224;-78
2022/07/17 13:40:19;;;;;;;4.00;1.27;;;37.60;19.90;;;;;;4240391;27;20665;-78
2022/07/17 13:42:21;;;;;;;3.28;1.60;;;37.50;19.30;;;;;;4225053;28;20228;-80
2022/07/17 13:44:23;;;;;;;2.20;1.10;;;37.90;19.80;;;;;;4248466;27;20257;-81
2022/07/17 13:46:25;;;;;;;2.60;1.30;;;37.60;19.30;;;;;;4245159;27;20307;-81
2022/07/17 13:48:27;;;;;;;3.38;1.02;;;37.70;19.20;;;;;;4246908;27;20598;-81
2022/07/17 13:50:31;;;;;;;2.67;0.85;;;37.80;19.40;;;;;;4227865;28;20712;-82
2022/07/17 13:52:33;;;;;;;2.80;1.13;;;37.60;19.20;;;;;;4245815;27;20216;-81
2022/07/17 13:54:35;;;;;;;8.32;4.18;;;37.90;20.10;;;;;;4246474;27;20220;-82
2022/07/17 13:56:36;;;;;;;2.75;1.63;;;38.20;19.40;;;;;;4240372;27;20306;-81
2022/07/17 13:58:40;;;;;;;2.25;1.00;;;38.20;19.00;;;;;;4232128;28;20208;-82
2022/07/17 14:00:42;;;;;;;1.60;0.85;;;38.10;18.80;;;;;;4247374;27;20196;-82
2022/07/17 14:02:44;;;;;;;5.07;1.15;;;38.50;18.70;;;;;;4244932;27;20259;-81